Time;durP1;ratioP1;P1;durP2;ratioP2;P2;SDS_P1;SDS_P2;PMS_P1;PMS_P2;Temp;Humidity;BMP_temperature;BMP_pressure;BME280_temperature;BME280_humidity;BME280_pressure;Samples;Min_cycle;Max_cycle;Signal;HPM_P1;HPM_P2
2021/09/01 00:00:00;;;;;;;31.15;10.98;;;12.40;97.60;;;;;;5005196;28;20201;-66
2021/09/01 00:02:26;;;;;;;43.25;11.85;;;12.30;97.70;;;;;;4998288;28;20037;-67
2021/09/01 00:04:51;;;;;;;30.20;12.20;;;12.30;97.70;;;;;;5003107;28;20021;-68
2021/09/01 00:07:17;;;;;;;46.13;12.38;;;12.30;97.80;;;;;;5008112;28;20515;-66
2021/09/01 00:09:43;;;;;;;39.40;13.23;;;12.20;97.80;;;;;;5001132;28;20346;-67
2021/09/01 00:12:09;;;;;;;29.63;13.32;;;12.30;97.90;;;;;;5012955;28;20034;-65
2021/09/01 00:14:35;;;;;;;41.17;14.05;;;12.30;97.90;;;;;;5003386;28;20036;-66
2021/09/01 00:17:01;;;;;;;40.75;14.23;;;12.30;98.00;;;;;;4997597;28;20574;-66
2021/09/01 00:19:26;;;;;;;41.28;13.07;;;12.30;97.90;;;;;;5005051;28;20122;-66
2021/09/01 00:21:52;;;;;;;35.78;13.95;;;12.30;98.00;;;;;;5000032;28;20018;-68
2021/09/01 00:24:18;;;;;;;39.25;13.98;;;12.30;97.90;;;;;;5006336;28;20273;-67
2021/09/01 00:26:44;;;;;;;33.15;13.15;;;12.30;97.90;;;;;;5006521;28;20510;-66
2021/09/01 00:29:10;;;;;;;32.38;14.65;;;12.20;98.00;;;;;;5002458;28;20034;-68
2021/09/01 00:31:36;;;;;;;39.42;13.57;;;12.20;98.00;;;;;;5002152;28;20037;-67
2021/09/01 00:34:02;;;;;;;44.00;13.07;;;12.20;98.00;;;;;;4999164;28;20026;-68
2021/09/01 00:36:27;;;;;;;32.08;12.88;;;12.10;97.90;;;;;;5004393;28;20030;-66
2021/09/01 00:38:53;;;;;;;37.17;13.40;;;12.10;98.00;;;;;;5008567;28;20551;-67
2021/09/01 00:41:23;;;;;;;33.00;12.75;;;12.10;97.90;;;;;;5004572;28;20029;-67
2021/09/01 00:43:54;;;;;;;34.13;13.13;;;12.00;97.90;;;;;;5005385;28;20034;-67
2021/09/01 00:46:20;;;;;;;32.38;12.23;;;11.90;97.90;;;;;;5004433;28;20022;-67
2021/09/01 00:48:48;;;;;;;31.83;12.07;;;11.80;97.90;;;;;;5006336;28;20512;-66
2021/09/01 00:51:15;;;;;;;29.00;12.50;;;11.80;97.90;;;;;;5006319;28;20044;-66
2021/09/01 00:53:45;;;;;;;31.38;12.95;;;11.80;97.90;;;;;;5007485;28;20435;-67
2021/09/01 00:56:22;;;;;;;43.55;13.48;;;11.80;97.80;;;;;;5015627;28;20037;-66
2021/09/01 00:58:49;;;;;;;39.08;13.85;;;11.70;97.80;;;;;;5006492;28;20033;-67
2021/09/01 01:01:19;;;;;;;29.10;12.70;;;11.70;97.80;;;;;;5003636;28;20130;-68
2021/09/01 01:03:52;;;;;;;36.92;13.52;;;11.60;97.80;;;;;;5003783;28;20032;-67
2021/09/01 01:06:25;;;;;;;45.38;13.45;;;11.60;98.00;;;;;;5003559;28;20063;-67
2021/09/01 01:08:54;;;;;;;35.88;13.73;;;11.60;98.10;;;;;;5006791;28;20022;-67
2021/09/01 01:11:21;;;;;;;40.13;14.02;;;11.60;98.10;;;;;;5007620;28;20084;-67
2021/09/01 01:13:51;;;;;;;47.95;13.88;;;11.70;98.20;;;;;;5010474;28;20065;-67
2021/09/01 01:16:25;;;;;;;51.25;14.82;;;11.60;98.30;;;;;;5006444;28;20428;-67
2021/09/01 01:18:51;;;;;;;40.30;14.20;;;11.60;98.30;;;;;;5004687;28;20026;-67
2021/09/01 01:21:19;;;;;;;36.28;14.50;;;11.70;98.50;;;;;;5008067;28;20432;-67
2021/09/01 01:23:50;;;;;;;44.83;14.93;;;11.60;98.50;;;;;;5004984;28;20033;-68
2021/09/01 01:26:16;;;;;;;44.97;16.15;;;11.70;98.60;;;;;;5001831;28;20025;-65
2021/09/01 01:28:42;;;;;;;41.15;14.95;;;11.70;98.50;;;;;;5006135;28;20033;-65
2021/09/01 01:31:08;;;;;;;44.92;15.65;;;11.60;98.50;;;;;;5003571;28;20534;-67
2021/09/01 01:33:33;;;;;;;40.75;15.07;;;11.60;98.60;;;;;;5004245;28;20072;-67
2021/09/01 01:35:59;;;;;;;48.38;15.40;;;11.60;98.50;;;;;;5006845;28;20030;-66
2021/09/01 01:38:25;;;;;;;41.55;15.18;;;11.60;98.60;;;;;;5005857;28;20030;-66
2021/09/01 01:40:50;;;;;;;43.92;15.35;;;11.60;98.70;;;;;;5001398;28;20057;-67
2021/09/01 01:43:16;;;;;;;51.55;15.52;;;11.60;98.60;;;;;;5004747;28;20092;-66
2021/09/01 01:45:45;;;;;;;53.85;16.38;;;11.60;98.70;;;;;;5005047;28;20033;-65
2021/09/01 01:48:13;;;;;;;47.17;15.85;;;11.50;98.70;;;;;;5000748;28;20034;-67
2021/09/01 01:50:40;;;;;;;57.33;15.85;;;11.50;98.70;;;;;;4998725;28;20034;-68
2021/09/01 01:53:07;;;;;;;50.00;14.63;;;11.50;98.80;;;;;;5014970;28;20034;-66
2021/09/01 01:55:33;;;;;;;57.42;15.93;;;11.50;98.70;;;;;;5008330;28;20026;-68
2021/09/01 01:57:59;;;;;;;61.72;16.02;;;11.50;98.80;;;;;;4988651;28;20508;-68
2021/09/01 02:00:25;;;;;;;58.45;15.73;;;11.40;98.90;;;;;;4991364;28;20038;-66
2021/09/01 02:02:50;;;;;;;44.03;14.23;;;11.50;98.90;;;;;;5008763;28;20026;-65
2021/09/01 02:05:16;;;;;;;61.45;15.25;;;11.40;98.90;;;;;;5008111;28;20477;-67
2021/09/01 02:07:42;;;;;;;52.13;14.52;;;11.40;98.80;;;;;;4999270;28;20025;-68
2021/09/01 02:10:09;;;;;;;70.93;13.75;;;11.40;98.80;;;;;;5003620;28;20034;-65
2021/09/01 02:12:36;;;;;;;56.03;15.30;;;11.30;98.70;;;;;;5010213;28;20030;-66
2021/09/01 02:15:03;;;;;;;60.30;15.20;;;11.30;98.90;;;;;;5001206;28;20440;-65
2021/09/01 02:17:29;;;;;;;51.47;14.43;;;11.30;99.00;;;;;;5002383;28;20084;-67
2021/09/01 02:19:55;;;;;;;49.47;14.32;;;11.30;99.00;;;;;;5004627;28;20251;-67
2021/09/01 02:22:21;;;;;;;40.22;13.75;;;11.30;99.10;;;;;;4999429;28;20034;-67
2021/09/01 02:24:47;;;;;;;46.70;14.05;;;11.30;99.10;;;;;;4999591;28;20746;-66
2021/09/01 02:27:13;;;;;;;45.78;14.73;;;11.30;99.20;;;;;;4999884;28;20026;-68
2021/09/01 02:29:39;;;;;;;46.75;15.57;;;11.40;99.30;;;;;;5002793;28;20030;-66
2021/09/01 02:32:06;;;;;;;52.58;14.68;;;11.40;99.30;;;;;;5008105;28;20041;-68
2021/09/01 02:34:32;;;;;;;40.17;14.13;;;11.40;99.20;;;;;;4998866;28;20388;-65
2021/09/01 02:36:57;;;;;;;47.22;15.82;;;11.40;99.30;;;;;;5008600;28;20026;-68
2021/09/01 02:39:23;;;;;;;56.42;16.00;;;11.30;99.30;;;;;;5003456;28;20029;-65
2021/09/01 02:41:49;;;;;;;45.50;15.02;;;11.30;99.30;;;;;;5005710;28;20025;-65
2021/09/01 02:44:15;;;;;;;46.72;15.07;;;11.30;99.20;;;;;;5001773;28;20500;-68
2021/09/01 02:46:40;;;;;;;52.92;14.77;;;11.30;99.30;;;;;;5003499;28;20080;-67
2021/09/01 02:49:06;;;;;;;40.92;14.77;;;11.20;99.30;;;;;;5005131;28;20574;-68
2021/09/01 02:51:32;;;;;;;55.47;15.05;;;11.20;99.30;;;;;;5010825;28;20030;-67
2021/09/01 02:53:58;;;;;;;48.03;14.05;;;11.20;99.30;;;;;;5005294;28;20025;-66
2021/09/01 02:56:23;;;;;;;42.03;13.23;;;11.10;99.20;;;;;;5003286;28;20022;-67
2021/09/01 02:58:49;;;;;;;43.75;12.73;;;11.10;99.20;;;;;;5002810;28;20033;-68
2021/09/01 03:01:15;;;;;;;50.63;12.55;;;11.00;99.20;;;;;;4998219;28;20034;-66
2021/09/01 03:03:40;;;;;;;55.22;13.57;;;11.00;99.20;;;;;;5003022;28;20022;-68
2021/09/01 03:06:06;;;;;;;55.55;12.98;;;10.90;99.20;;;;;;5009088;28;20376;-68
2021/09/01 03:08:32;;;;;;;46.58;12.65;;;10.90;99.10;;;;;;4994570;28;20029;-68
2021/09/01 03:10:57;;;;;;;36.38;11.90;;;10.80;99.20;;;;;;5006499;28;20041;-67
2021/09/01 03:13:23;;;;;;;31.58;10.07;;;10.80;99.20;;;;;;5000697;28;20034;-67
2021/09/01 03:15:48;;;;;;;39.75;9.52;;;10.70;99.00;;;;;;5003743;28;20256;-67
2021/09/01 03:18:14;;;;;;;29.23;8.48;;;10.60;99.00;;;;;;5003582;28;20724;-66
2021/09/01 03:20:40;;;;;;;37.33;9.90;;;10.60;99.00;;;;;;5003376;28;20052;-66
2021/09/01 03:23:06;;;;;;;42.13;11.48;;;10.60;98.90;;;;;;5005742;28;20563;-67
2021/09/01 03:25:31;;;;;;;41.17;11.27;;;10.60;98.90;;;;;;5005150;28;20152;-67
2021/09/01 03:27:59;;;;;;;68.60;13.10;;;10.60;98.90;;;;;;5000370;28;20481;-65
2021/09/01 03:30:26;;;;;;;57.33;13.35;;;10.60;98.80;;;;;;5000803;28;20528;-68
2021/09/01 03:32:51;;;;;;;85.97;13.80;;;10.60;98.80;;;;;;5003747;28;20489;-67
2021/09/01 03:35:17;;;;;;;45.90;11.90;;;10.60;98.90;;;;;;5008691;28;20083;-66
2021/09/01 03:37:42;;;;;;;36.83;11.27;;;10.60;98.90;;;;;;5004566;28;20402;-66
2021/09/01 03:40:08;;;;;;;37.15;11.88;;;10.50;98.90;;;;;;5003542;28;20029;-67
2021/09/01 03:42:34;;;;;;;44.60;11.13;;;10.50;98.90;;;;;;5006684;28;20026;-68
2021/09/01 03:44:59;;;;;;;56.08;11.75;;;10.40;98.90;;;;;;5008680;28;20094;-67
2021/09/01 03:47:25;;;;;;;39.05;11.77;;;10.40;98.90;;;;;;5011748;28;20524;-65
2021/09/01 03:49:51;;;;;;;22.80;10.02;;;10.40;98.90;;;;;;5001510;28;20037;-67
2021/09/01 03:52:17;;;;;;;27.70;10.98;;;10.30;98.90;;;;;;5004214;28;20121;-67
2021/09/01 03:54:42;;;;;;;22.65;9.48;;;10.30;98.80;;;;;;5008078;28;20354;-66
2021/09/01 03:57:08;;;;;;;26.95;10.50;;;10.30;98.80;;;;;;5008612;28;20304;-67
2021/09/01 03:59:33;;;;;;;20.65;9.57;;;10.20;98.80;;;;;;5006378;28;20029;-67
2021/09/01 04:01:59;;;;;;;27.05;9.80;;;10.20;98.80;;;;;;5010250;28;20071;-68
2021/09/01 04:04:25;;;;;;;39.22;11.48;;;10.20;98.90;;;;;;5005500;28;20027;-67
2021/09/01 04:06:50;;;;;;;45.13;11.60;;;10.20;98.80;;;;;;5007180;28;20029;-66
2021/09/01 04:09:16;;;;;;;43.95;10.98;;;10.10;98.80;;;;;;5006561;28;20029;-67
2021/09/01 04:11:41;;;;;;;50.63;11.63;;;10.10;98.80;;;;;;5016474;28;20705;-67
2021/09/01 04:14:07;;;;;;;30.63;10.85;;;10.10;98.80;;;;;;5007485;28;20061;-67
2021/09/01 04:16:33;;;;;;;33.58;11.40;;;10.10;98.80;;;;;;5000204;28;20054;-68
2021/09/01 04:18:59;;;;;;;50.88;11.48;;;10.10;98.80;;;;;;4997967;28;20072;-67
2021/09/01 04:21:24;;;;;;;36.08;11.18;;;10.10;98.80;;;;;;5008051;28;20026;-64
2021/09/01 04:23:50;;;;;;;28.52;11.05;;;10.10;98.90;;;;;;5009084;28;20024;-65
2021/09/01 04:26:16;;;;;;;24.77;10.10;;;10.10;98.90;;;;;;5008175;28;20029;-64
2021/09/01 04:28:41;;;;;;;29.10;11.25;;;10.10;98.90;;;;;;5003221;28;20393;-65
2021/09/01 04:31:07;;;;;;;29.40;10.88;;;10.00;98.80;;;;;;5005145;28;20472;-63
2021/09/01 04:33:33;;;;;;;28.27;11.00;;;10.10;98.80;;;;;;5007063;28;20037;-64
2021/09/01 04:35:59;;;;;;;26.23;11.05;;;10.20;98.80;;;;;;5007385;28;20034;-63
2021/09/01 04:38:24;;;;;;;39.67;11.85;;;10.30;98.70;;;;;;5003623;28;20038;-63
2021/09/01 04:40:50;;;;;;;32.83;11.20;;;10.30;98.70;;;;;;5004300;28;20396;-62
2021/09/01 04:43:16;;;;;;;54.17;12.25;;;10.30;98.60;;;;;;5008265;28;20028;-61
2021/09/01 04:45:41;;;;;;;22.40;10.13;;;10.40;98.60;;;;;;4998722;28;20292;-63
2021/09/01 04:48:07;;;;;;;22.70;9.85;;;10.40;98.60;;;;;;5008618;28;20037;-62
2021/09/01 04:50:33;;;;;;;25.48;10.98;;;10.40;98.60;;;;;;5006899;28;20061;-62
2021/09/01 04:52:58;;;;;;;35.85;10.50;;;10.40;98.60;;;;;;4997867;28;20062;-62
2021/09/01 04:55:24;;;;;;;27.90;10.82;;;10.40;98.40;;;;;;5003742;28;20056;-63
2021/09/01 04:57:50;;;;;;;27.42;9.70;;;10.40;98.50;;;;;;5009056;28;20026;-63
2021/09/01 05:00:15;;;;;;;31.27;9.50;;;10.40;98.50;;;;;;5000975;28;20057;-63
2021/09/01 05:02:41;;;;;;;40.83;10.60;;;10.50;98.60;;;;;;5003795;28;20021;-61
2021/09/01 05:05:07;;;;;;;28.65;9.85;;;10.50;98.60;;;;;;5003927;28;20057;-63
2021/09/01 05:07:33;;;;;;;35.63;10.70;;;10.50;98.70;;;;;;5003565;28;20026;-62
2021/09/01 05:09:59;;;;;;;43.47;11.38;;;10.50;98.70;;;;;;4993893;28;20054;-63
2021/09/01 05:12:27;;;;;;;37.53;11.05;;;10.60;98.70;;;;;;4992451;28;20135;-62
2021/09/01 05:14:54;;;;;;;42.70;10.40;;;10.60;98.70;;;;;;4999660;28;20041;-63
2021/09/01 05:17:20;;;;;;;46.10;10.95;;;10.70;98.80;;;;;;4997329;28;20400;-64
2021/09/01 05:19:46;;;;;;;41.20;10.55;;;10.70;98.80;;;;;;4998614;28;20033;-62
2021/09/01 05:22:16;;;;;;;38.80;11.13;;;10.80;98.80;;;;;;4990061;28;20430;-63
2021/09/01 05:24:57;;;;;;;57.13;11.43;;;10.80;98.80;;;;;;5000979;28;20021;-63
2021/09/01 05:27:24;;;;;;;50.13;11.82;;;10.90;98.90;;;;;;5001733;28;20520;-63
2021/09/01 05:29:50;;;;;;;53.33;11.10;;;10.90;98.80;;;;;;4997732;28;20037;-63
2021/09/01 05:32:16;;;;;;;50.42;12.43;;;10.80;98.80;;;;;;5009032;28;20484;-63
2021/09/01 05:34:42;;;;;;;37.45;10.35;;;11.00;98.90;;;;;;4998817;28;20034;-63
2021/09/01 05:37:11;;;;;;;50.05;9.82;;;11.00;98.80;;;;;;5004481;28;20068;-63
2021/09/01 05:39:38;;;;;;;53.67;9.43;;;11.00;98.80;;;;;;5003713;28;20030;-63
2021/09/01 05:42:05;;;;;;;42.10;9.77;;;11.00;98.60;;;;;;5004558;28;20490;-63
2021/09/01 05:44:31;;;;;;;49.38;9.07;;;11.00;98.60;;;;;;5002084;28;20072;-64
2021/09/01 05:46:58;;;;;;;43.63;9.55;;;11.00;98.60;;;;;;5010076;28;20485;-65
2021/09/01 05:49:25;;;;;;;41.50;9.07;;;11.10;98.60;;;;;;5000423;28;20030;-63
2021/09/01 05:51:51;;;;;;;38.85;10.10;;;11.10;98.60;;;;;;5003666;28;20079;-64
2021/09/01 05:54:17;;;;;;;53.20;10.10;;;11.10;98.50;;;;;;5005219;28;20022;-63
2021/09/01 05:56:48;;;;;;;43.95;10.80;;;11.20;98.50;;;;;;5005148;28;20032;-64
2021/09/01 05:59:17;;;;;;;54.67;11.45;;;11.20;98.50;;;;;;5004005;28;20593;-64
2021/09/01 06:01:50;;;;;;;50.67;10.98;;;11.30;98.40;;;;;;4996816;28;20105;-62
2021/09/01 06:04:17;;;;;;;36.75;10.30;;;11.40;98.40;;;;;;5004635;28;20045;-63
2021/09/01 06:06:49;;;;;;;74.32;10.70;;;11.50;98.40;;;;;;5002017;28;20026;-63
2021/09/01 06:09:14;;;;;;;51.08;10.18;;;11.60;98.50;;;;;;5000308;28;20160;-63
2021/09/01 06:11:45;;;;;;;54.28;10.50;;;11.60;98.30;;;;;;5001252;28;20092;-63
2021/09/01 06:14:11;;;;;;;50.60;9.98;;;11.70;98.20;;;;;;5000006;28;20404;-64
2021/09/01 06:16:37;;;;;;;49.03;10.45;;;11.80;98.20;;;;;;5000038;28;20026;-64
2021/09/01 06:19:02;;;;;;;66.35;9.68;;;11.90;98.10;;;;;;5004060;28;20030;-64
2021/09/01 06:21:28;;;;;;;35.22;10.65;;;11.90;98.10;;;;;;5002829;28;20026;-63
2021/09/01 06:23:55;;;;;;;34.72;10.80;;;12.00;98.00;;;;;;4999346;28;20022;-63
2021/09/01 06:26:21;;;;;;;20.80;10.57;;;12.10;98.10;;;;;;5004049;28;20022;-67
2021/09/01 06:28:47;;;;;;;30.38;10.43;;;12.20;98.20;;;;;;5004332;28;20037;-61
2021/09/01 06:31:12;;;;;;;25.58;10.70;;;12.30;98.20;;;;;;5004974;28;20026;-63
2021/09/01 06:33:38;;;;;;;26.17;10.88;;;12.40;98.00;;;;;;5003151;28;20061;-63
2021/09/01 06:36:04;;;;;;;20.10;11.77;;;12.50;97.90;;;;;;5006824;28;20072;-63
2021/09/01 06:38:30;;;;;;;24.20;10.20;;;12.60;97.90;;;;;;5005292;28;20038;-63
2021/09/01 06:40:55;;;;;;;18.63;11.05;;;12.70;97.80;;;;;;5004779;28;20033;-63
2021/09/01 06:43:21;;;;;;;20.67;11.20;;;12.80;97.90;;;;;;5004067;28;20059;-63
2021/09/01 06:45:48;;;;;;;25.52;12.45;;;13.00;97.80;;;;;;5006131;28;20080;-63
2021/09/01 06:48:13;;;;;;;25.45;12.02;;;13.10;97.60;;;;;;5009093;28;20041;-64
2021/09/01 06:50:39;;;;;;;21.35;11.15;;;13.20;97.50;;;;;;5006139;28;20030;-64
2021/09/01 06:53:07;;;;;;;25.75;12.07;;;13.40;97.60;;;;;;5005516;28;20029;-64
2021/09/01 06:55:33;;;;;;;18.10;10.55;;;13.50;97.20;;;;;;5007710;28;20261;-64
2021/09/01 06:57:59;;;;;;;24.52;10.90;;;13.60;97.40;;;;;;5007022;28;20053;-64
2021/09/01 07:00:24;;;;;;;20.02;10.85;;;13.70;97.10;;;;;;5007491;28;20064;-64
2021/09/01 07:02:50;;;;;;;16.75;10.13;;;13.80;96.90;;;;;;5006334;28;20938;-64
2021/09/01 07:05:18;;;;;;;20.95;10.07;;;13.90;96.90;;;;;;5006052;28;20053;-63
2021/09/01 07:07:44;;;;;;;26.20;10.23;;;14.00;96.80;;;;;;5004793;28;20022;-63
2021/09/01 07:10:11;;;;;;;25.67;10.55;;;14.10;96.40;;;;;;5004997;28;20094;-63
2021/09/01 07:12:37;;;;;;;21.27;9.93;;;14.10;96.20;;;;;;5007207;28;20038;-64
2021/09/01 07:15:07;;;;;;;15.95;9.88;;;14.10;96.20;;;;;;5007903;28;20028;-63
2021/09/01 07:17:33;;;;;;;17.92;10.55;;;14.30;96.30;;;;;;4988244;28;20034;-64
2021/09/01 07:19:59;;;;;;;18.02;10.55;;;14.30;96.30;;;;;;5003731;28;20771;-62
2021/09/01 07:22:24;;;;;;;19.40;10.35;;;14.40;96.20;;;;;;4998745;28;20049;-63
2021/09/01 07:24:50;;;;;;;15.68;9.65;;;14.60;96.20;;;;;;5001544;28;20034;-64
2021/09/01 07:27:16;;;;;;;23.75;10.45;;;14.60;95.70;;;;;;5003705;28;20030;-64
2021/09/01 07:29:41;;;;;;;20.67;10.05;;;14.80;95.80;;;;;;5000133;28;20037;-62
2021/09/01 07:32:07;;;;;;;22.20;10.25;;;14.90;95.50;;;;;;5008690;28;20041;-63
2021/09/01 07:34:32;;;;;;;25.50;10.48;;;14.90;95.50;;;;;;5002950;28;20624;-65
2021/09/01 07:36:58;;;;;;;19.27;9.93;;;15.00;95.10;;;;;;5004306;28;20059;-64
2021/09/01 07:39:24;;;;;;;18.80;9.02;;;15.10;94.80;;;;;;5000730;28;20043;-63
2021/09/01 07:41:50;;;;;;;18.17;9.70;;;15.40;94.80;;;;;;5004404;28;20411;-64
2021/09/01 07:44:15;;;;;;;22.88;8.73;;;15.50;94.20;;;;;;5003043;28;20026;-63
2021/09/01 07:46:41;;;;;;;16.83;8.70;;;15.50;93.80;;;;;;4987900;28;20030;-63
2021/09/01 07:49:07;;;;;;;21.38;8.95;;;15.80;93.70;;;;;;4998496;28;20063;-63
2021/09/01 07:51:32;;;;;;;17.55;8.07;;;15.70;93.00;;;;;;4994067;28;20022;-62
2021/09/01 07:53:58;;;;;;;16.48;7.63;;;15.90;92.70;;;;;;4990832;28;20022;-63
2021/09/01 07:56:23;;;;;;;15.57;7.85;;;16.10;92.90;;;;;;4996059;28;20470;-64
2021/09/01 07:58:49;;;;;;;15.75;7.32;;;16.10;92.30;;;;;;4983662;28;20021;-63
2021/09/01 08:01:15;;;;;;;13.50;6.72;;;16.00;92.00;;;;;;4996632;28;20578;-63
2021/09/01 08:03:40;;;;;;;18.90;7.47;;;16.20;92.10;;;;;;5000200;28;20190;-64
2021/09/01 08:06:07;;;;;;;15.52;7.88;;;16.20;92.00;;;;;;4998061;28;20026;-61
2021/09/01 08:08:33;;;;;;;13.73;7.03;;;16.20;91.70;;;;;;4996305;28;20022;-63
2021/09/01 08:10:59;;;;;;;11.93;6.88;;;16.50;91.40;;;;;;5003567;28;20029;-64
2021/09/01 08:13:25;;;;;;;14.52;7.00;;;16.50;91.00;;;;;;5002390;28;20038;-64
2021/09/01 08:15:51;;;;;;;16.83;6.95;;;16.50;90.50;;;;;;4991466;28;20026;-62
2021/09/01 08:18:17;;;;;;;13.82;6.63;;;16.60;90.60;;;;;;4998594;28;20037;-63
2021/09/01 08:20:43;;;;;;;15.50;6.28;;;16.80;90.10;;;;;;5002259;28;20033;-64
2021/09/01 08:23:08;;;;;;;19.80;6.40;;;16.80;90.00;;;;;;5001103;28;20022;-63
2021/09/01 08:25:34;;;;;;;13.20;6.10;;;16.80;89.30;;;;;;5001042;28;20025;-63
2021/09/01 08:28:00;;;;;;;15.13;6.38;;;16.80;89.60;;;;;;4998637;28;20022;-63
2021/09/01 08:30:26;;;;;;;14.75;6.43;;;16.90;89.00;;;;;;5013218;28;20044;-63
2021/09/01 08:32:51;;;;;;;16.10;6.82;;;17.00;88.80;;;;;;5003471;28;20030;-62
2021/09/01 08:35:17;;;;;;;18.77;6.13;;;17.00;88.50;;;;;;5005387;28;20116;-62
2021/09/01 08:37:43;;;;;;;12.98;6.45;;;17.00;88.60;;;;;;5003248;28;20457;-62
2021/09/01 08:40:09;;;;;;;13.65;5.97;;;17.00;88.10;;;;;;5005326;28;20444;-63
2021/09/01 08:42:38;;;;;;;15.00;6.38;;;17.00;88.40;;;;;;5004955;28;20143;-63
2021/09/01 08:45:05;;;;;;;11.05;5.95;;;17.20;87.90;;;;;;5006789;28;20033;-63
2021/09/01 08:47:32;;;;;;;13.98;6.63;;;17.20;87.60;;;;;;5005521;28;20018;-64
2021/09/01 08:49:58;;;;;;;14.23;5.78;;;17.20;87.80;;;;;;5010821;28;20098;-62
2021/09/01 08:52:25;;;;;;;9.82;5.50;;;17.20;87.60;;;;;;5001832;28;20132;-64
2021/09/01 08:54:51;;;;;;;11.95;6.30;;;17.50;88.10;;;;;;5002956;28;20509;-64
2021/09/01 08:57:17;;;;;;;15.43;6.18;;;17.60;87.40;;;;;;5002647;28;20040;-64
2021/09/01 08:59:43;;;;;;;12.43;5.43;;;17.70;87.00;;;;;;5001943;28;20038;-63
2021/09/01 09:02:08;;;;;;;12.98;5.93;;;17.90;85.50;;;;;;5002224;28;20018;-63
2021/09/01 09:04:35;;;;;;;14.50;6.45;;;17.80;86.00;;;;;;5003057;28;20552;-63
2021/09/01 09:07:03;;;;;;;12.45;5.85;;;17.80;85.60;;;;;;5002304;28;20030;-63
2021/09/01 09:09:30;;;;;;;11.32;5.43;;;17.80;85.80;;;;;;5002241;28;20124;-64
2021/09/01 09:11:58;;;;;;;14.70;5.60;;;18.00;85.20;;;;;;4998460;28;20485;-61
2021/09/01 09:14:32;;;;;;;12.02;5.47;;;18.30;84.20;;;;;;5001470;28;20034;-62
2021/09/01 09:17:34;;;;;;;14.52;5.88;;;18.20;83.80;;;;;;5003339;28;20033;-64
2021/09/01 09:20:04;;;;;;;13.73;5.15;;;18.50;83.00;;;;;;4998170;28;20042;-64
2021/09/01 09:22:32;;;;;;;13.02;5.50;;;18.40;82.80;;;;;;5002029;28;20030;-62
2021/09/01 09:25:10;;;;;;;11.48;6.00;;;18.40;82.50;;;;;;5004693;28;20121;-64
2021/09/01 09:27:43;;;;;;;10.73;5.10;;;18.40;83.40;;;;;;5000714;28;20038;-61
2021/09/01 09:30:21;;;;;;;14.82;5.88;;;18.40;81.70;;;;;;5007492;28;20500;-64
2021/09/01 09:33:22;;;;;;;12.52;5.50;;;17.90;82.70;;;;;;4993845;28;20026;-60
2021/09/01 09:35:58;;;;;;;13.43;5.88;;;18.20;83.10;;;;;;4965571;28;20046;-63
2021/09/01 09:38:41;;;;;;;10.10;5.30;;;18.50;81.50;;;;;;4999632;28;20112;-63
2021/09/01 09:41:30;;;;;;;15.75;6.03;;;18.70;81.50;;;;;;5002531;28;21143;-62
2021/09/01 09:44:03;;;;;;;10.43;5.30;;;18.70;80.90;;;;;;5001853;28;20088;-60
2021/09/01 09:46:29;;;;;;;9.35;5.18;;;18.90;80.00;;;;;;4995833;28;20632;-63
2021/09/01 09:49:06;;;;;;;10.45;5.25;;;18.80;81.30;;;;;;5010478;28;20029;-61
2021/09/01 09:51:42;;;;;;;17.10;5.10;;;18.90;80.70;;;;;;4984241;28;20042;-63
2021/09/01 09:54:19;;;;;;;12.20;5.45;;;18.90;80.50;;;;;;5000591;28;20034;-61
2021/09/01 09:56:45;;;;;;;12.27;5.28;;;19.10;79.70;;;;;;5003249;28;20025;-63
2021/09/01 09:59:17;;;;;;;11.88;4.93;;;19.10;80.20;;;;;;5003184;28;20025;-63
2021/09/01 10:01:44;;;;;;;13.25;5.38;;;19.10;80.40;;;;;;5005489;28;20400;-61
2021/09/01 10:04:10;;;;;;;14.05;5.72;;;18.90;80.00;;;;;;5007098;28;20468;-63
2021/09/01 10:06:35;;;;;;;13.63;5.53;;;19.20;79.40;;;;;;5002427;28;20097;-63
2021/09/01 10:09:04;;;;;;;12.70;5.68;;;19.50;79.30;;;;;;4995865;28;20057;-62
2021/09/01 10:11:33;;;;;;;11.48;5.97;;;19.20;79.50;;;;;;5004733;28;20029;-63
2021/09/01 10:13:59;;;;;;;13.30;5.82;;;19.50;78.40;;;;;;4997010;28;20030;-61
2021/09/01 10:16:32;;;;;;;11.77;5.53;;;19.90;77.50;;;;;;5005032;28;20036;-63
2021/09/01 10:19:00;;;;;;;9.73;5.43;;;20.00;77.10;;;;;;5002122;28;20046;-63
2021/09/01 10:21:31;;;;;;;12.82;5.70;;;20.40;75.70;;;;;;4987459;28;20398;-63
2021/09/01 10:23:57;;;;;;;11.25;5.15;;;20.80;74.90;;;;;;4996173;28;20405;-62
2021/09/01 10:26:29;;;;;;;12.93;5.25;;;20.30;75.50;;;;;;5000960;28;20036;-61
2021/09/01 10:29:00;;;;;;;13.07;5.82;;;20.30;75.30;;;;;;4995495;28;20402;-62
2021/09/01 10:31:33;;;;;;;;;;;20.40;75.20;;;;;;5009573;28;20371;-62
2021/09/01 10:34:02;;;;;;;9.93;5.35;;;20.20;76.70;;;;;;4999013;28;19909;-62
2021/09/01 10:36:27;;;;;;;15.88;5.78;;;20.00;76.00;;;;;;4997871;28;20025;-63
2021/09/01 10:39:14;;;;;;;10.45;5.63;;;20.50;76.50;;;;;;4999723;28;20084;-62
2021/09/01 10:41:39;;;;;;;14.23;5.95;;;20.40;74.60;;;;;;5001490;28;20408;-62
2021/09/01 10:44:10;;;;;;;9.70;6.20;;;20.20;75.40;;;;;;4999975;28;20029;-61
2021/09/01 10:46:51;;;;;;;12.75;5.82;;;20.50;76.60;;;;;;4999715;28;20026;-61
2021/09/01 10:49:20;;;;;;;;;;;20.70;73.60;;;;;;4994658;28;20559;-60
2021/09/01 10:52:03;;;;;;;10.80;5.47;;;20.90;73.70;;;;;;5014617;28;19917;-63
2021/09/01 10:54:36;;;;;;;9.90;5.80;;;20.90;73.20;;;;;;4999657;28;20025;-63
2021/09/01 10:57:05;;;;;;;10.60;5.68;;;21.00;72.60;;;;;;5010021;28;20029;-61
2021/09/01 10:59:37;;;;;;;9.00;5.10;;;21.50;72.00;;;;;;4983813;28;20022;-63
2021/09/01 11:02:08;;;;;;;10.23;5.82;;;20.90;73.30;;;;;;4999492;28;20489;-62
2021/09/01 11:04:34;;;;;;;12.20;5.13;;;20.60;73.60;;;;;;5001532;28;20025;-61
2021/09/01 11:07:05;;;;;;;8.23;5.30;;;21.00;73.20;;;;;;4997818;28;20022;-62
2021/09/01 11:09:30;;;;;;;11.05;5.70;;;21.20;71.30;;;;;;4998252;28;20022;-64
2021/09/01 11:12:00;;;;;;;9.68;5.15;;;21.80;71.70;;;;;;5002925;28;20511;-63
2021/09/01 11:14:43;;;;;;;10.30;5.50;;;21.50;71.00;;;;;;5002231;28;20040;-63
2021/09/01 11:17:21;;;;;;;10.82;5.18;;;22.00;69.40;;;;;;5000653;28;20033;-63
2021/09/01 11:19:48;;;;;;;11.35;5.40;;;21.80;69.20;;;;;;4995848;28;20034;-62
2021/09/01 11:22:19;;;;;;;11.70;4.70;;;21.80;69.40;;;;;;5003522;28;20030;-64
2021/09/01 11:24:50;;;;;;;8.40;4.05;;;22.10;69.30;;;;;;4997727;28;20049;-64
2021/09/01 11:27:18;;;;;;;10.30;4.20;;;22.10;68.90;;;;;;5005057;28;20116;-62
2021/09/01 11:29:44;;;;;;;11.88;4.32;;;22.50;68.40;;;;;;5003955;28;20112;-63
2021/09/01 11:32:13;;;;;;;9.13;5.00;;;22.50;68.70;;;;;;4993283;28;20117;-63
2021/09/01 11:34:39;;;;;;;10.68;4.43;;;22.10;68.30;;;;;;4995042;28;20030;-63
2021/09/01 11:37:04;;;;;;;11.05;4.70;;;22.60;68.80;;;;;;5004772;28;20252;-62
2021/09/01 11:39:30;;;;;;;8.70;4.10;;;22.50;68.10;;;;;;4996845;28;20029;-64
2021/09/01 11:41:58;;;;;;;7.30;4.43;;;22.50;67.50;;;;;;5008622;28;20528;-63
2021/09/01 11:44:24;;;;;;;11.38;3.88;;;22.60;67.20;;;;;;4996476;28;20487;-64
2021/09/01 11:46:49;;;;;;;6.60;3.85;;;23.30;65.80;;;;;;4998541;28;20057;-61
2021/09/01 11:49:15;;;;;;;10.93;4.88;;;23.60;63.90;;;;;;4995094;28;20022;-63
2021/09/01 11:51:43;;;;;;;9.63;4.38;;;23.10;65.10;;;;;;4999885;28;20405;-64
2021/09/01 11:54:10;;;;;;;10.93;4.55;;;23.30;63.30;;;;;;5001443;28;20026;-64
2021/09/01 11:56:36;;;;;;;9.07;4.30;;;23.60;64.40;;;;;;5006697;28;20391;-61
2021/09/01 11:59:07;;;;;;;8.25;3.80;;;24.00;63.80;;;;;;5000588;28;20046;-62
2021/09/01 12:01:35;;;;;;;;;;;23.90;63.90;;;;;;5008957;28;20021;-64
2021/09/01 12:04:01;;;;;;;7.88;4.40;;;23.80;63.10;;;;;;5007972;28;19910;-62
2021/09/01 12:06:45;;;;;;;12.10;4.00;;;23.60;64.20;;;;;;5008453;28;20017;-64
2021/09/01 12:09:15;;;;;;;9.38;4.50;;;24.00;62.90;;;;;;5008754;28;20025;-61
2021/09/01 12:11:58;;;;;;;9.05;4.88;;;23.80;60.60;;;;;;5003980;28;20037;-63
2021/09/01 12:14:28;;;;;;;8.13;4.20;;;24.30;60.20;;;;;;4999248;28;20421;-63
2021/09/01 12:17:14;;;;;;;9.55;4.18;;;24.70;59.90;;;;;;5003294;28;20191;-63
2021/09/01 12:19:57;;;;;;;10.48;4.22;;;24.70;60.90;;;;;;5001370;28;20058;-62
2021/09/01 12:22:34;;;;;;;8.70;4.20;;;24.40;59.90;;;;;;4994173;28;20058;-62
2021/09/01 12:25:10;;;;;;;9.20;4.03;;;24.60;60.20;;;;;;4999341;28;20026;-62
2021/09/01 12:27:39;;;;;;;7.85;3.95;;;25.10;57.00;;;;;;5001770;28;20021;-62
2021/09/01 12:30:10;;;;;;;8.65;4.47;;;25.00;59.50;;;;;;5003356;28;20195;-61
2021/09/01 12:32:35;;;;;;;6.72;3.78;;;24.10;60.60;;;;;;5001216;28;20030;-63
2021/09/01 12:35:05;;;;;;;7.13;3.95;;;24.20;61.00;;;;;;4980814;28;20169;-63